Time;durP1;ratioP1;P1;durP2;ratioP2;P2;SDS_P1;SDS_P2;PMS_P1;PMS_P2;Temp;Humidity;BMP_temperature;BMP_pressure;BME280_temperature;BME280_humidity;BME280_pressure;Samples;Min_cycle;Max_cycle;Signal;HPM_P1;HPM_P2
2022/07/08 00:02:08;;;;;;;7.13;0.93;;;;;;;14.59;93.37;102439.81;6249556;28;20413;-79
2022/07/08 00:05:09;;;;;;;6.65;1.05;;;;;;;14.48;93.82;102440.22;6249441;28;20053;-77
2022/07/08 00:08:11;;;;;;;2.78;0.77;;;;;;;14.46;94.26;102431.50;6248622;28;20049;-77
2022/07/08 00:11:12;;;;;;;11.40;1.42;;;;;;;14.43;94.84;102434.25;6249092;28;20057;-76
2022/07/08 00:14:15;;;;;;;4.45;1.05;;;;;;;14.42;95.96;102441.34;6249053;28;20049;-79
2022/07/08 00:17:16;;;;;;;4.35;0.82;;;;;;;14.44;96.73;102435.97;6249313;28;20046;-80
2022/07/08 00:20:18;;;;;;;1.90;0.80;;;;;;;14.47;96.75;102435.84;6248461;28;20425;-79
2022/07/08 00:23:19;;;;;;;4.85;0.70;;;;;;;14.50;95.80;102438.41;6249243;28;20049;-80
2022/07/08 00:26:21;;;;;;;2.47;0.85;;;;;;;14.50;95.59;102443.69;6247208;28;20046;-79
2022/07/08 00:29:23;;;;;;;9.63;1.20;;;;;;;14.49;96.25;102438.44;6248673;28;20056;-79
2022/07/08 00:32:25;;;;;;;12.70;0.90;;;;;;;14.46;97.02;102434.13;6247062;28;20425;-79
2022/07/08 00:35:26;;;;;;;1.50;1.08;;;;;;;14.43;96.74;102434.25;6248251;28;20053;-80
2022/07/08 00:38:27;;;;;;;12.30;1.95;;;;;;;14.41;97.77;102430.81;6248447;28;20053;-80
2022/07/08 00:41:29;;;;;;;2.85;0.77;;;;;;;14.42;97.93;102435.19;6248071;28;20053;-79
2022/07/08 00:44:32;;;;;;;2.92;0.85;;;;;;;14.41;98.60;102436.13;6248153;28;20052;-79
2022/07/08 00:47:33;;;;;;;2.33;0.98;;;;;;;14.39;98.92;102449.38;6248310;28;20481;-79
2022/07/08 00:50:35;;;;;;;2.70;1.02;;;;;;;14.36;99.00;102441.59;6247897;28;20041;-80
2022/07/08 00:53:38;;;;;;;1.70;0.70;;;;;;;14.35;99.85;102452.22;6248264;28;20057;-79
2022/07/08 00:56:40;;;;;;;4.10;0.75;;;;;;;14.33;100.00;102446.16;6241314;28;20490;-80
2022/07/08 00:59:43;;;;;;;4.15;0.98;;;;;;;14.33;99.71;102454.09;6247749;28;20053;-79
2022/07/08 01:02:44;;;;;;;3.10;1.00;;;;;;;14.31;100.00;102451.53;6248318;28;20508;-80
2022/07/08 01:05:46;;;;;;;2.40;0.45;;;;;;;14.30;100.00;102460.34;6247588;28;20053;-80
2022/07/08 01:08:48;;;;;;;1.67;0.45;;;;;;;14.28;100.00;102459.56;6247716;28;20052;-79
2022/07/08 01:11:49;;;;;;;8.48;1.35;;;;;;;14.28;100.00;102461.34;6247639;28;20049;-79
2022/07/08 01:14:52;;;;;;;4.22;0.85;;;;;;;14.28;100.00;102466.66;6247830;28;20053;-79
2022/07/08 01:17:53;;;;;;;1.75;0.70;;;;;;;14.28;100.00;102458.72;6247860;28;20042;-79
2022/07/08 01:20:57;;;;;;;3.53;1.13;;;;;;;14.26;100.00;102461.44;6247547;28;20104;-79
2022/07/08 01:23:59;;;;;;;7.25;1.95;;;;;;;14.27;100.00;102459.63;6248053;28;20489;-79
2022/07/08 01:27:00;;;;;;;3.35;1.33;;;;;;;14.25;100.00;102456.19;6246420;28;20045;-79
2022/07/08 01:30:02;;;;;;;3.15;0.80;;;;;;;14.25;100.00;102449.09;6247499;28;20048;-78
2022/07/08 01:33:03;;;;;;;1.75;0.43;;;;;;;14.25;100.00;102450.91;6247585;28;20144;-80
2022/07/08 01:36:07;;;;;;;9.07;1.02;;;;;;;14.26;100.00;102453.50;6247032;28;20463;-80
2022/07/08 01:39:09;;;;;;;1.40;0.90;;;;;;;14.23;100.00;102450.97;6247351;28;20134;-79
2022/07/08 01:42:10;;;;;;;3.58;1.25;;;;;;;14.20;100.00;102449.28;6246978;28;20057;-80
2022/07/08 01:45:11;;;;;;;6.78;1.33;;;;;;;14.23;100.00;102458.03;6247381;28;20053;-79
2022/07/08 01:48:13;;;;;;;2.58;0.93;;;;;;;14.22;100.00;102459.84;6247062;28;20050;-79
2022/07/08 01:51:15;;;;;;;1.80;0.50;;;;;;;14.22;100.00;102465.13;6247099;28;20164;-79
2022/07/08 01:54:17;;;;;;;6.07;1.33;;;;;;;14.18;100.00;102458.22;6246641;28;20049;-79
2022/07/08 01:57:21;;;;;;;5.45;0.80;;;;;;;14.20;100.00;102461.66;6246027;28;20049;-79
2022/07/08 02:00:23;;;;;;;2.72;0.70;;;;;;;14.21;100.00;102455.44;6233880;28;20060;-79
2022/07/08 02:03:25;;;;;;;4.72;1.48;;;;;;;14.21;100.00;102448.38;6223220;28;20054;-79
2022/07/08 02:06:28;;;;;;;3.50;0.90;;;;;;;14.15;100.00;102448.63;6222366;28;20080;-79
2022/07/08 02:09:29;;;;;;;1.30;0.50;;;;;;;14.14;100.00;102444.28;6246152;28;20046;-79
2022/07/08 02:12:31;;;;;;;2.53;1.05;;;;;;;14.12;100.00;102453.19;6246707;28;20413;-79
2022/07/08 02:15:32;;;;;;;1.88;0.52;;;;;;;14.10;100.00;102445.31;6246730;28;20054;-79
2022/07/08 02:18:34;;;;;;;3.38;0.98;;;;;;;14.12;100.00;102447.88;6246580;28;20424;-79
2022/07/08 02:21:37;;;;;;;1.80;0.55;;;;;;;14.09;100.00;102451.53;6247109;28;20049;-79
2022/07/08 02:24:38;;;;;;;8.18;1.25;;;;;;;14.06;100.00;102456.06;6245054;28;20045;-79
2022/07/08 02:27:40;;;;;;;4.72;0.63;;;;;;;14.02;100.00;102450.06;6242105;28;20048;-80
2022/07/08 02:30:41;;;;;;;2.75;1.05;;;;;;;14.05;100.00;102451.72;6246426;28;20049;-79
2022/07/08 02:33:43;;;;;;;2.78;0.93;;;;;;;14.07;100.00;102452.50;6246269;28;20060;-77
2022/07/08 02:36:45;;;;;;;1.73;0.75;;;;;;;14.04;100.00;102447.38;6247104;28;20053;-79
2022/07/08 02:39:47;;;;;;;3.50;0.70;;;;;;;14.06;100.00;102450.78;6246733;28;20042;-79
2022/07/08 02:42:48;;;;;;;4.25;0.55;;;;;;;14.04;100.00;102448.22;6245319;28;20053;-79
2022/07/08 02:45:49;;;;;;;3.40;0.80;;;;;;;14.01;100.00;102450.13;6246450;28;20049;-79
2022/07/08 02:48:50;;;;;;;3.63;0.77;;;;;;;14.01;100.00;102461.56;6246504;28;20053;-79
2022/07/08 02:51:53;;;;;;;1.45;0.85;;;;;;;13.99;100.00;102452.84;6246511;28;20045;-79
2022/07/08 02:54:54;;;;;;;5.95;0.40;;;;;;;13.98;100.00;102460.81;6246395;28;20056;-80
2022/07/08 02:57:56;;;;;;;3.00;0.80;;;;;;;14.00;100.00;102462.47;6246227;28;20418;-79
2022/07/08 03:00:57;;;;;;;3.45;1.52;;;;;;;14.02;100.00;102457.97;6246499;28;20129;-79
2022/07/08 03:03:59;;;;;;;8.50;0.75;;;;;;;13.96;100.00;102459.09;6246613;28;20050;-78
2022/07/08 03:07:01;;;;;;;1.58;0.73;;;;;;;13.97;100.00;102462.59;6250931;28;20410;-79
2022/07/08 03:10:03;;;;;;;4.53;0.52;;;;;;;13.94;100.00;102470.63;6250873;28;20046;-80
2022/07/08 03:13:04;;;;;;;3.15;0.47;;;;;;;13.94;100.00;102468.88;6250748;28;20049;-80
2022/07/08 03:16:07;;;;;;;1.25;0.50;;;;;;;13.89;100.00;102470.81;6250719;28;20056;-80
2022/07/08 03:19:09;;;;;;;3.20;0.93;;;;;;;13.91;100.00;102470.78;6250436;28;20402;-79
2022/07/08 03:22:11;;;;;;;4.65;0.55;;;;;;;13.92;100.00;102477.78;6250482;28;20045;-80
2022/07/08 03:25:13;;;;;;;4.03;1.25;;;;;;;13.96;100.00;102479.38;6250138;28;20045;-79
2022/07/08 03:28:14;;;;;;;6.32;0.98;;;;;;;13.93;100.00;102490.06;6248840;28;20052;-79
2022/07/08 03:31:16;;;;;;;3.63;0.75;;;;;;;13.92;100.00;102483.06;6250026;28;20049;-79
2022/07/08 03:34:17;;;;;;;6.88;1.13;;;;;;;13.94;100.00;102503.25;6250274;28;20049;-79
2022/07/08 03:37:20;;;;;;;1.65;0.60;;;;;;;13.94;100.00;102492.66;6250227;28;20577;-79
2022/07/08 03:43:41;;;;;;;3.23;0.77;;;;;;;13.95;100.00;102501.47;6250163;28;20548;-79
2022/07/08 03:46:43;;;;;;;6.68;1.08;;;;;;;13.91;100.00;102507.78;6250063;28;20060;-79
2022/07/08 03:49:44;;;;;;;2.85;1.00;;;;;;;13.93;100.00;102511.22;6249489;28;20060;-80
2022/07/08 03:52:47;;;;;;;1.88;0.60;;;;;;;13.92;100.00;102520.06;6250624;28;20493;-81
2022/07/08 03:55:48;;;;;;;2.90;0.85;;;;;;;13.95;100.00;102518.19;6251820;28;20505;-80
2022/07/08 03:58:49;;;;;;;2.83;0.80;;;;;;;13.89;100.00;102518.41;6249097;28;20056;-79
2022/07/08 04:01:51;;;;;;;11.32;1.00;;;;;;;13.90;100.00;102522.78;6250198;28;20052;-79
2022/07/08 04:04:52;;;;;;;3.08;0.70;;;;;;;13.88;100.00;102521.09;6250147;28;20084;-79
2022/07/08 04:07:55;;;;;;;0.73;0.45;;;;;;;13.86;100.00;102522.97;6249862;28;20053;-80
2022/07/08 04:10:56;;;;;;;5.97;0.90;;;;;;;13.87;100.00;102525.53;6251220;28;20068;-79
2022/07/08 04:13:57;;;;;;;2.22;0.90;;;;;;;13.89;100.00;102526.31;6249835;28;20045;-79
2022/07/08 04:16:59;;;;;;;1.98;0.75;;;;;;;13.87;100.00;102530.81;6250494;28;20056;-80
2022/07/08 04:20:00;;;;;;;10.15;2.17;;;;;;;13.85;100.00;102529.16;6249817;28;20046;-80
2022/07/08 04:23:02;;;;;;;10.48;1.02;;;;;;;13.93;100.00;102529.72;6249964;28;20053;-79
2022/07/08 04:26:04;;;;;;;1.80;0.70;;;;;;;13.93;100.00;102527.94;6250163;28;20057;-80
2022/07/08 04:29:05;;;;;;;4.28;0.85;;;;;;;13.91;100.00;102536.84;6248285;28;20053;-79
2022/07/08 04:32:08;;;;;;;5.40;0.82;;;;;;;13.89;100.00;102554.53;6249758;28;20056;-79
2022/07/08 04:35:09;;;;;;;0.88;0.68;;;;;;;13.90;100.00;102543.94;6249393;28;20501;-80
2022/07/08 04:38:12;;;;;;;2.60;0.45;;;;;;;13.91;100.00;102553.56;6249501;28;20056;-79
2022/07/08 04:41:13;;;;;;;2.03;1.00;;;;;;;13.92;100.00;102550.00;6250141;28;20533;-80
2022/07/08 04:44:15;;;;;;;3.22;0.90;;;;;;;13.92;100.00;102557.94;6249322;28;20718;-79
2022/07/08 04:47:16;;;;;;;3.63;1.08;;;;;;;13.95;100.00;102565.75;6248698;28;20053;-80
2022/07/08 04:50:17;;;;;;;2.97;1.00;;;;;;;14.01;100.00;102563.78;6248647;28;20416;-79
2022/07/08 04:53:20;;;;;;;1.67;0.80;;;;;;;13.97;100.00;102570.97;6248989;28;20049;-80
2022/07/08 04:56:21;;;;;;;3.45;1.58;;;;;;;13.99;100.00;102581.47;6248729;28;20049;-80
2022/07/08 04:59:23;;;;;;;3.15;1.23;;;;;;;14.01;100.00;102575.22;6247993;28;20408;-80
2022/07/08 05:02:24;;;;;;;2.28;0.90;;;;;;;13.96;100.00;102561.31;6248947;28;20122;-80
2022/07/08 05:05:27;;;;;;;1.98;0.88;;;;;;;13.96;100.00;102563.97;6249173;28;20049;-79
2022/07/08 05:08:30;;;;;;;2.05;0.57;;;;;;;14.07;100.00;102563.53;6249105;28;20068;-79
2022/07/08 05:11:31;;;;;;;6.72;0.90;;;;;;;14.01;100.00;102563.78;6249960;28;20050;-79
2022/07/08 05:14:33;;;;;;;5.28;1.27;;;;;;;14.06;100.00;102569.75;6248759;28;20053;-79
2022/07/08 05:17:34;;;;;;;3.47;0.77;;;;;;;14.05;100.00;102568.03;6240119;28;20049;-79
2022/07/08 05:20:36;;;;;;;2.65;0.65;;;;;;;14.09;100.00;102572.28;6223483;28;20042;-79
2022/07/08 05:23:40;;;;;;;2.30;0.65;;;;;;;14.13;100.00;102573.91;6245712;28;20159;-79
2022/07/08 05:26:42;;;;;;;2.40;0.90;;;;;;;14.13;100.00;102574.75;6247871;28;20060;-80
2022/07/08 05:29:43;;;;;;;5.90;0.90;;;;;;;14.19;100.00;102574.50;6234725;28;20053;-80
2022/07/08 05:32:45;;;;;;;4.35;0.85;;;;;;;14.20;100.00;102570.94;6228031;28;20053;-79
2022/07/08 05:35:46;;;;;;;2.95;0.85;;;;;;;14.19;100.00;102574.50;6236722;28;20081;-79
2022/07/08 05:38:49;;;;;;;1.05;0.50;;;;;;;14.23;100.00;102577.03;6235525;28;20053;-79
2022/07/08 05:41:51;;;;;;;4.03;0.60;;;;;;;14.21;100.00;102575.28;6247936;28;20053;-80
2022/07/08 05:44:52;;;;;;;4.65;0.98;;;;;;;14.23;100.00;102583.19;6246349;28;20103;-79
2022/07/08 05:47:53;;;;;;;50.80;20.58;;;;;;;14.26;100.00;102582.19;6245960;28;20413;-79
2022/07/08 05:50:55;;;;;;;5.38;1.13;;;;;;;14.35;100.00;102572.13;6246219;28;20500;-79
2022/07/08 05:53:57;;;;;;;2.65;1.05;;;;;;;14.37;100.00;102580.00;6233783;28;20054;-80
2022/07/08 05:57:00;;;;;;;1.05;0.90;;;;;;;14.36;100.00;102584.44;6232909;28;20412;-79
2022/07/08 06:00:01;;;;;;;4.32;1.15;;;;;;;14.37;100.00;102586.16;6239057;28;20041;-80
2022/07/08 06:03:05;;;;;;;2.60;0.70;;;;;;;14.36;100.00;102586.22;6234892;28;20053;-79
2022/07/08 06:06:06;;;;;;;4.03;0.93;;;;;;;14.35;100.00;102598.59;6232572;28;20049;-80
2022/07/08 06:09:09;;;;;;;7.40;1.00;;;;;;;14.42;100.00;102597.41;6242910;28;20045;-79
2022/07/08 06:12:11;;;;;;;3.42;1.33;;;;;;;14.44;100.00;102594.69;6245179;28;20420;-80
2022/07/08 06:15:14;;;;;;;1.40;0.60;;;;;;;14.47;100.00;102600.72;6247172;28;20049;-80
2022/07/08 06:18:16;;;;;;;5.05;0.80;;;;;;;14.47;100.00;102603.38;6247426;28;20055;-80
2022/07/08 06:21:17;;;;;;;5.53;0.80;;;;;;;14.53;100.00;102607.56;6247269;28;20054;-80
2022/07/08 06:24:20;;;;;;;5.95;1.35;;;;;;;14.57;100.00;102608.31;6247286;28;20045;-79
2022/07/08 06:27:21;;;;;;;4.32;0.93;;;;;;;14.65;100.00;102596.50;6247278;28;20049;-79
2022/07/08 06:30:23;;;;;;;2.78;0.63;;;;;;;14.64;100.00;102594.78;6237117;28;20057;-80
2022/07/08 06:33:24;;;;;;;3.28;0.80;;;;;;;14.76;100.00;102597.84;6245213;28;20053;-80
2022/07/08 06:36:27;;;;;;;3.25;1.88;;;;;;;14.81;100.00;102593.25;6246602;28;20053;-80
2022/07/08 06:39:29;;;;;;;3.05;0.85;;;;;;;14.86;99.52;102596.56;6249717;28;20045;-79
2022/07/08 06:42:31;;;;;;;1.90;0.70;;;;;;;14.83;99.73;102591.38;6248696;28;20064;-78
2022/07/08 06:45:32;;;;;;;2.63;0.52;;;;;;;14.87;100.00;102606.22;6251801;28;20501;-79
2022/07/08 06:48:34;;;;;;;4.60;0.80;;;;;;;14.96;98.11;102604.03;6252108;28;20055;-79
2022/07/08 06:51:35;;;;;;;5.03;1.13;;;;;;;15.08;98.28;102617.69;6251841;28;20520;-80
2022/07/08 06:54:39;;;;;;;1.45;0.63;;;;;;;15.13;98.07;102629.81;6251977;28;20061;-80
2022/07/08 06:57:40;;;;;;;1.80;0.70;;;;;;;15.16;97.74;102627.03;6252301;28;20049;-80
2022/07/08 07:00:41;;;;;;;9.95;0.90;;;;;;;15.18;96.19;102622.53;6233611;28;20046;-80
2022/07/08 07:03:43;;;;;;;2.47;0.80;;;;;;;15.20;95.76;102625.09;6230834;28;20518;-80
2022/07/08 07:06:44;;;;;;;6.35;1.45;;;;;;;15.23;96.35;102627.63;6229128;28;20094;-80
2022/07/08 07:09:47;;;;;;;1.17;0.63;;;;;;;15.31;94.66;102633.47;6229318;28;20054;-80
2022/07/08 07:12:48;;;;;;;1.90;1.10;;;;;;;15.30;96.50;102637.03;6231638;28;20054;-80
2022/07/08 07:15:50;;;;;;;4.53;0.85;;;;;;;15.39;96.09;102635.78;6229977;28;20057;-80
2022/07/08 07:18:52;;;;;;;1.27;0.77;;;;;;;15.42;95.72;102622.41;6231004;28;20505;-80
2022/07/08 07:21:53;;;;;;;3.45;0.93;;;;;;;15.45;96.34;102635.53;6229071;28;20417;-81
2022/07/08 07:24:56;;;;;;;5.93;0.70;;;;;;;15.45;94.46;102644.34;6230519;28;20054;-80
2022/07/08 07:27:57;;;;;;;2.80;1.00;;;;;;;15.46;94.67;102646.03;6231736;28;20490;-81
2022/07/08 07:30:59;;;;;;;5.38;0.90;;;;;;;15.41;94.76;102645.38;6232591;28;20046;-80
2022/07/08 07:34:00;;;;;;;5.40;0.77;;;;;;;15.43;95.01;102646.16;6233221;28;20054;-81
2022/07/08 07:37:02;;;;;;;3.92;1.95;;;;;;;15.46;94.33;102642.53;6230403;28;20489;-82
2022/07/08 07:40:06;;;;;;;6.20;0.63;;;;;;;15.42;92.87;102649.75;6230218;28;20402;-80
2022/07/08 07:43:07;;;;;;;6.45;0.80;;;;;;;15.45;92.66;102648.78;6231831;28;20045;-80
2022/07/08 07:46:09;;;;;;;1.50;0.80;;;;;;;15.59;93.65;102648.16;6231907;28;20061;-81
2022/07/08 07:49:10;;;;;;;5.20;0.90;;;;;;;15.73;89.68;102656.41;6229707;28;20050;-79
2022/07/08 07:52:11;;;;;;;1.70;0.60;;;;;;;15.73;89.15;102661.69;6227576;28;20060;-81
2022/07/08 07:55:14;;;;;;;3.80;0.80;;;;;;;15.79;90.02;102657.91;6230387;28;20057;-79
2022/07/08 07:58:15;;;;;;;1.95;0.75;;;;;;;15.84;91.85;102663.88;6230193;28;20061;-80
2022/07/08 08:01:17;;;;;;;3.95;0.60;;;;;;;15.89;92.35;102660.06;6248647;28;20054;-81
2022/07/08 08:04:18;;;;;;;2.67;0.80;;;;;;;16.06;91.96;102669.06;6249341;28;20053;-82
2022/07/08 08:07:19;;;;;;;3.13;0.80;;;;;;;16.27;86.80;102657.47;6254520;28;20057;-81
2022/07/08 08:10:22;;;;;;;5.18;0.90;;;;;;;16.24;84.95;102660.25;6253929;28;20060;-76
2022/07/08 08:13:23;;;;;;;5.70;0.70;;;;;;;16.26;86.42;102665.47;6254249;28;20536;-79
2022/07/08 08:16:25;;;;;;;1.10;0.90;;;;;;;16.30;86.04;102654.66;6253440;28;20057;-79
2022/07/08 08:19:26;;;;;;;0.95;0.50;;;;;;;16.32;86.90;102652.81;6254776;28;20049;-80
2022/07/08 08:22:27;;;;;;;4.10;1.30;;;;;;;16.42;86.77;102647.91;6252469;28;20053;-80
2022/07/08 08:25:30;;;;;;;1.15;0.70;;;;;;;16.47;85.69;102654.72;6252846;28;20052;-80
2022/07/08 08:28:31;;;;;;;1.27;0.85;;;;;;;16.42;85.98;102653.22;6254594;28;20052;-80
2022/07/08 08:31:33;;;;;;;4.20;1.30;;;;;;;16.42;87.86;102656.75;6255254;28;20049;-80
2022/07/08 08:34:34;;;;;;;2.00;0.50;;;;;;;16.49;84.93;102662.63;6255243;28;20515;-79
2022/07/08 08:37:35;;;;;;;1.95;0.50;;;;;;;16.40;85.34;102660.41;6252070;28;20045;-80
2022/07/08 08:40:39;;;;;;;2.75;1.08;;;;;;;16.30;86.43;102661.75;6249862;28;20053;-79
2022/07/08 08:43:40;;;;;;;6.50;1.23;;;;;;;16.28;86.98;102666.28;6225594;28;20058;-78
2022/07/08 08:46:44;;;;;;;4.22;0.70;;;;;;;16.27;87.43;102668.09;6234153;28;20104;-78
2022/07/08 08:49:48;;;;;;;1.83;0.70;;;;;;;16.22;87.02;102657.69;6232396;28;20049;-78
2022/07/08 08:52:52;;;;;;;3.05;0.68;;;;;;;16.31;89.50;102671.47;6237048;28;20831;-78
2022/07/08 08:55:56;;;;;;;2.35;0.70;;;;;;;16.34;87.57;102663.34;6235841;28;20042;-77
2022/07/08 08:58:59;;;;;;;3.70;1.00;;;;;;;16.33;87.64;102673.09;6235817;28;20068;-77
2022/07/08 09:02:01;;;;;;;6.45;1.48;;;;;;;16.34;88.04;102676.59;6262008;28;20049;-77
2022/07/08 09:05:03;;;;;;;0.73;0.60;;;;;;;16.36;89.41;102674.75;6262214;28;20068;-78
2022/07/08 09:08:05;;;;;;;3.85;0.80;;;;;;;16.37;88.39;102679.13;6261762;28;20052;-77
2022/07/08 09:11:08;;;;;;;0.90;0.60;;;;;;;16.39;89.02;102675.44;6260887;28;20053;-79
2022/07/08 09:14:15;;;;;;;1.08;0.60;;;;;;;16.39;87.18;102666.63;6260163;28;20052;-77
2022/07/08 09:17:17;;;;;;;4.05;0.70;;;;;;;16.49;88.19;102658.19;6262253;28;20045;-78
2022/07/08 09:20:18;;;;;;;4.38;0.93;;;;;;;16.50;86.57;102659.03;6258095;28;20053;-77
2022/07/08 09:23:21;;;;;;;2.05;0.80;;;;;;;16.59;88.44;102658.59;6259529;28;20049;-78
2022/07/08 09:26:28;;;;;;;1.25;1.00;;;;;;;16.68;86.95;102660.81;6257123;28;20061;-79
2022/07/08 09:29:29;;;;;;;1.98;1.20;;;;;;;16.68;87.91;102652.84;6253841;28;20140;-76
2022/07/08 09:32:30;;;;;;;3.75;1.00;;;;;;;16.73;88.81;102660.63;6253873;28;20061;-78
2022/07/08 09:35:34;;;;;;;3.58;1.08;;;;;;;16.77;87.45;102662.19;6250689;28;20060;-79
2022/07/08 09:38:37;;;;;;;2.97;0.90;;;;;;;16.70;90.41;102664.22;6249851;28;20052;-80
2022/07/08 09:41:47;;;;;;;2.35;0.98;;;;;;;16.59;90.59;102665.69;6250830;28;20079;-79
2022/07/08 09:44:53;;;;;;;1.08;0.82;;;;;;;16.51;92.42;102667.84;6248363;28;20050;-80
2022/07/08 09:48:01;;;;;;;3.00;1.30;;;;;;;16.57;93.49;102667.56;6253364;28;20060;-78
2022/07/08 09:51:07;;;;;;;5.47;0.90;;;;;;;16.67;91.88;102671.50;6251103;28;20053;-79
2022/07/08 09:54:09;;;;;;;2.05;0.93;;;;;;;16.64;92.61;102669.84;6256788;28;20064;-79
2022/07/08 09:57:13;;;;;;;3.63;1.23;;;;;;;16.68;91.43;102667.91;6252667;28;20125;-78
2022/07/08 10:00:15;;;;;;;2.25;1.08;;;;;;;16.71;93.04;102667.75;6248774;28;20046;-79
2022/07/08 10:03:17;;;;;;;3.08;1.00;;;;;;;16.77;92.48;102667.50;6245140;28;20121;-79
2022/07/08 10:06:18;;;;;;;1.13;0.90;;;;;;;16.82;91.71;102665.47;6254050;28;20041;-80
2022/07/08 10:09:21;;;;;;;1.83;0.90;;;;;;;16.85;90.25;102667.09;6255694;28;20048;-80
2022/07/08 10:12:25;;;;;;;16.10;1.83;;;;;;;16.86;91.21;102660.88;6254251;28;20041;-79
2022/07/08 10:15:27;;;;;;;0.90;0.60;;;;;;;16.98;91.85;102650.47;6247127;28;20501;-79
2022/07/08 10:18:36;;;;;;;2.58;0.73;;;;;;;17.12;91.74;102652.47;6231857;28;20508;-79
2022/07/08 10:21:40;;;;;;;1.47;0.90;;;;;;;17.25;90.46;102658.00;6233266;28;20623;-79
2022/07/08 10:24:44;;;;;;;1.83;0.88;;;;;;;17.22;89.22;102655.53;6231144;28;20057;-79
2022/07/08 10:27:47;;;;;;;2.78;0.80;;;;;;;17.18;89.92;102661.94;6233626;28;20541;-78
2022/07/08 10:30:51;;;;;;;2.72;0.60;;;;;;;17.10;90.98;102664.97;6235482;28;20057;-79
2022/07/08 10:33:59;;;;;;;1.23;0.80;;;;;;;17.03;91.00;102666.19;6244781;28;20117;-80
2022/07/08 10:37:02;;;;;;;4.23;1.10;;;;;;;17.04;91.55;102665.28;6243601;28;20412;-78
2022/07/08 10:40:04;;;;;;;2.95;0.93;;;;;;;17.07;90.94;102664.25;6256623;28;20417;-78
2022/07/08 10:43:20;;;;;;;2.78;1.73;;;;;;;17.16;91.88;102671.75;6253280;28;20053;-78
2022/07/08 10:46:25;;;;;;;1.65;0.93;;;;;;;17.32;91.05;102670.06;6252173;28;20046;-78
2022/07/08 10:49:40;;;;;;;4.65;1.10;;;;;;;17.51;91.46;102669.97;6252041;28;20050;-78
2022/07/08 10:52:42;;;;;;;5.35;0.98;;;;;;;17.73;91.57;102670.59;6229573;28;20050;-79
2022/07/08 10:55:46;;;;;;;4.57;0.88;;;;;;;17.80;90.77;102668.47;6230400;28;20050;-77
2022/07/08 10:59:18;;;;;;;1.95;0.82;;;;;;;17.74;90.23;102668.78;6226226;28;20054;-80
2022/07/08 11:02:21;;;;;;;1.25;0.80;;;;;;;17.74;91.28;102664.34;6244199;28;20059;-79
2022/07/08 11:05:36;;;;;;;4.55;0.90;;;;;;;17.86;90.41;102665.50;6250341;28;20053;-79
2022/07/08 11:08:37;;;;;;;3.40;0.50;;;;;;;17.97;90.84;102659.59;6251977;28;20100;-78
2022/07/08 11:11:41;;;;;;;6.07;0.90;;;;;;;18.07;90.01;102663.47;6251695;28;20053;-79
2022/07/08 11:14:44;;;;;;;4.18;1.00;;;;;;;18.04;89.08;102663.66;6244388;28;20049;-79
2022/07/08 11:17:48;;;;;;;2.67;0.90;;;;;;;18.02;91.46;102668.19;6250899;28;20057;-79
2022/07/08 11:20:50;;;;;;;4.93;0.90;;;;;;;18.02;92.61;102673.50;6251545;28;20041;-79
2022/07/08 11:23:52;;;;;;;2.35;0.98;;;;;;;17.98;90.76;102671.94;6251707;28;20049;-78
2022/07/08 11:26:54;;;;;;;1.48;0.90;;;;;;;17.73;92.40;102678.56;6251713;28;20057;-79
2022/07/08 11:29:57;;;;;;;1.85;1.08;;;;;;;17.62;93.59;102670.28;6250966;28;20049;-79
2022/07/08 11:32:58;;;;;;;1.00;0.63;;;;;;;17.61;92.94;102675.66;6238771;28;20432;-80
2022/07/08 11:36:00;;;;;;;2.95;0.75;;;;;;;17.61;94.93;102678.31;6241315;28;20053;-78
2022/07/08 11:39:04;;;;;;;5.93;0.95;;;;;;;17.63;95.27;102673.81;6227559;28;20472;-77
2022/07/08 11:42:06;;;;;;;1.40;0.77;;;;;;;17.71;95.72;102658.28;6232984;28;20049;-79
2022/07/08 11:45:11;;;;;;;0.90;0.50;;;;;;;17.89;96.76;102657.31;6233617;28;20049;-78
2022/07/08 11:48:13;;;;;;;3.58;1.38;;;;;;;18.11;91.63;102662.34;6245711;28;20054;-78
2022/07/08 11:51:15;;;;;;;5.38;1.00;;;;;;;18.23;92.36;102664.34;6243410;28;20057;-78
2022/07/08 11:54:20;;;;;;;3.55;1.05;;;;;;;18.23;92.86;102658.19;6250956;28;20056;-78
2022/07/08 11:57:21;;;;;;;4.07;1.05;;;;;;;18.08;93.35;102653.72;6250460;28;20046;-79
2022/07/08 12:00:28;;;;;;;3.42;1.17;;;;;;;17.99;93.89;102655.06;6227980;28;20049;-78
2022/07/08 12:03:29;;;;;;;3.70;1.00;;;;;;;17.90;94.81;102644.91;6227018;28;20125;-78
2022/07/08 12:06:30;;;;;;;3.92;0.90;;;;;;;17.88;96.04;102644.13;6241321;28;20053;-78
2022/07/08 12:09:32;;;;;;;6.07;1.20;;;;;;;17.86;95.98;102638.91;6249705;28;20056;-79
2022/07/08 12:12:35;;;;;;;2.90;1.23;;;;;;;17.91;96.02;102636.00;6250315;28;20050;-78
2022/07/08 12:15:38;;;;;;;6.03;1.08;;;;;;;17.96;95.80;102636.59;6250376;28;20049;-78
2022/07/08 12:18:44;;;;;;;1.15;0.68;;;;;;;18.02;96.05;102638.06;6250637;28;20050;-79
2022/07/08 12:21:45;;;;;;;2.17;0.80;;;;;;;18.01;95.85;102637.19;6250209;28;20045;-78
2022/07/08 12:24:47;;;;;;;4.32;1.83;;;;;;;18.00;95.58;102640.81;6250189;28;20053;-77
2022/07/08 12:27:56;;;;;;;3.42;0.90;;;;;;;17.99;95.32;102634.63;6250947;28;20054;-78
2022/07/08 12:30:58;;;;;;;3.42;1.10;;;;;;;17.95;96.04;102634.88;6243113;28;20044;-78
2022/07/08 12:34:03;;;;;;;1.75;0.77;;;;;;;17.93;97.47;102629.63;6241567;28;20050;-80
2022/07/08 12:37:15;;;;;;;1.08;0.88;;;;;;;17.94;97.56;102630.47;6249697;28;20049;-78
2022/07/08 12:40:17;;;;;;;4.40;0.90;;;;;;;17.97;98.43;102627.66;6249896;28;20050;-79
2022/07/08 12:43:19;;;;;;;6.53;1.30;;;;;;;18.00;97.25;102630.16;6250077;28;20060;-79
2022/07/08 12:46:21;;;;;;;2.55;1.08;;;;;;;18.19;96.66;102625.53;6250349;28;20049;-79
2022/07/08 12:49:24;;;;;;;2.78;1.02;;;;;;;18.43;96.07;102622.44;6248687;28;20052;-76
2022/07/08 12:52:25;;;;;;;0.90;0.88;;;;;;;18.62;95.73;102617.81;6249807;28;20171;-78
2022/07/08 12:55:27;;;;;;;1.17;0.80;;;;;;;18.63;95.25;102614.19;6252886;28;20050;-78
2022/07/08 12:58:28;;;;;;;5.75;1.38;;;;;;;18.58;93.88;102621.59;6250318;28;20487;-77
2022/07/08 13:01:31;;;;;;;3.13;1.05;;;;;;;18.51;95.32;102613.06;6248996;28;20493;-78
2022/07/08 13:04:32;;;;;;;2.05;1.20;;;;;;;18.63;96.09;102621.31;6251065;28;20056;-78
2022/07/08 13:07:34;;;;;;;2.03;0.95;;;;;;;18.77;96.71;102610.75;6251339;28;20412;-78
2022/07/08 13:10:35;;;;;;;1.77;1.10;;;;;;;18.85;94.49;102605.84;6249270;28;20421;-79
2022/07/08 13:13:37;;;;;;;4.10;1.00;;;;;;;18.97;94.73;102607.78;6250803;28;20045;-79
2022/07/08 13:16:39;;;;;;;4.97;0.95;;;;;;;19.07;92.59;102612.56;6248507;28;20049;-75
2022/07/08 13:19:41;;;;;;;5.88;1.70;;;;;;;19.07;93.23;102607.22;6246020;28;20049;-75
2022/07/08 13:22:42;;;;;;;2.72;1.20;;;;;;;19.01;94.41;102603.13;6247206;28;20046;-76
2022/07/08 13:25:46;;;;;;;1.75;1.10;;;;;;;18.97;93.82;102609.59;6247322;28;20053;-77
2022/07/08 13:28:47;;;;;;;2.35;0.90;;;;;;;18.89;95.64;102614.50;6242918;28;20052;-76
2022/07/08 13:31:50;;;;;;;1.90;0.90;;;;;;;18.88;96.06;102613.66;6243422;28;20056;-77
2022/07/08 13:34:51;;;;;;;1.13;0.90;;;;;;;18.88;95.00;102618.97;6248798;28;20500;-76
2022/07/08 13:37:52;;;;;;;2.85;1.15;;;;;;;18.75;94.98;102617.97;6241885;28;20053;-77
2022/07/08 13:40:54;;;;;;;3.90;1.13;;;;;;;18.65;96.73;102625.59;6252130;28;20420;-77
2022/07/08 13:43:55;;;;;;;1.23;1.00;;;;;;;18.56;97.65;102631.47;6253406;28;20041;-77
2022/07/08 13:46:58;;;;;;;1.52;0.82;;;;;;;18.58;97.51;102637.56;6252067;28;20057;-76
2022/07/08 13:49:59;;;;;;;1.17;0.73;;;;;;;18.47;98.20;102642.63;6249576;28;20045;-78
2022/07/08 13:53:01;;;;;;;0.95;0.85;;;;;;;18.44;99.25;102632.13;6252069;28;20056;-79
2022/07/08 13:56:02;;;;;;;2.10;0.90;;;;;;;18.43;99.01;102633.94;6252465;28;20060;-78
2022/07/08 13:59:04;;;;;;;2.42;1.08;;;;;;;18.46;99.07;102633.78;6252063;28;20057;-76
2022/07/08 14:02:07;;;;;;;3.17;1.00;;;;;;;18.50;99.33;102626.50;6242387;28;20667;-76
2022/07/08 14:05:09;;;;;;;2.00;1.00;;;;;;;18.50;98.86;102635.34;6249987;28;20052;-77
2022/07/08 14:08:10;;;;;;;1.55;1.13;;;;;;;18.48;99.38;102631.03;6253837;28;20064;-77